createdAt,value
2022-08-05T00:00:17.572Z,19.73
2022-08-05T00:02:50.825Z,19.68
2022-08-05T00:06:01.594Z,19.59
2022-08-05T00:08:32.710Z,19.55
2022-08-05T00:10:56.761Z,19.47
2022-08-05T00:13:38.360Z,19.53
2022-08-05T00:16:13.468Z,19.46
2022-08-05T00:18:48.053Z,19.48
2022-08-05T00:21:16.565Z,19.45
2022-08-05T00:23:46.877Z,19.55
2022-08-05T00:26:22.079Z,19.52
2022-08-05T00:28:49.337Z,19.50
2022-08-05T00:31:16.574Z,19.48
2022-08-05T00:34:54.422Z,19.51
2022-08-05T00:37:10.662Z,19.58
2022-08-05T00:39:41.584Z,19.54
2022-08-05T00:42:11.422Z,19.51
2022-08-05T00:44:58.205Z,19.50
2022-08-05T00:47:26.248Z,19.47
2022-08-05T00:50:13.062Z,19.39
2022-08-05T00:52:40.343Z,19.32
2022-08-05T00:55:07.259Z,19.24
2022-08-05T00:57:38.245Z,19.03
2022-08-05T01:00:22.025Z,18.96
2022-08-05T01:02:53.029Z,18.74
2022-08-05T01:05:20.102Z,18.65
2022-08-05T01:08:39.142Z,18.58
2022-08-05T01:10:58.125Z,18.54
2022-08-05T01:13:57.541Z,18.51
2022-08-05T01:16:44.422Z,18.51
2022-08-05T01:19:46.378Z,18.49
2022-08-05T01:22:27.950Z,18.51
2022-08-05T01:25:02.635Z,18.35
2022-08-05T01:28:00.499Z,18.49
2022-08-05T01:30:34.058Z,18.52
2022-08-05T01:33:06.269Z,18.53
2022-08-05T01:35:52.172Z,18.57
2022-08-05T01:38:27.496Z,18.58
2022-08-05T01:40:59.797Z,18.59
2022-08-05T01:43:29.901Z,18.56
2022-08-05T01:45:57.864Z,18.57
2022-08-05T01:48:27.629Z,18.58
2022-08-05T01:50:56.869Z,18.55
2022-08-05T01:53:57.742Z,18.54
2022-08-05T01:58:09.366Z,18.51
2022-08-05T01:59:11.050Z,18.49
2022-08-05T02:01:40.195Z,18.51
2022-08-05T02:04:10.281Z,18.47
2022-08-05T02:06:39.131Z,18.51
2022-08-05T02:09:07.414Z,18.57
2022-08-05T02:12:16.029Z,18.62
2022-08-05T02:14:52.768Z,18.57
2022-08-05T02:18:32.358Z,18.55
2022-08-05T02:20:26.280Z,18.54
2022-08-05T02:22:58.564Z,18.61
2022-08-05T02:25:33.334Z,18.61
2022-08-05T02:28:09.236Z,18.57
2022-08-05T02:30:51.707Z,18.56
2022-08-05T02:33:24.612Z,18.44
2022-08-05T02:36:09.411Z,18.38
2022-08-05T02:38:37.624Z,18.33
2022-08-05T02:41:06.381Z,18.42
2022-08-05T02:44:06.639Z,18.40
2022-08-05T02:46:34.467Z,18.45
2022-08-05T02:49:01.946Z,18.46
2022-08-05T02:52:01.149Z,18.46
2022-08-05T02:54:34.867Z,18.46
2022-08-05T02:57:10.150Z,18.49
2022-08-05T02:59:55.439Z,18.51
2022-08-05T03:02:39.031Z,18.50
2022-08-05T03:05:09.370Z,18.52
2022-08-05T03:08:01.372Z,18.45
2022-08-05T03:10:25.871Z,18.48
2022-08-05T03:12:54.276Z,18.44
2022-08-05T03:15:24.761Z,18.42
2022-08-05T03:17:56.165Z,18.46
2022-08-05T03:20:25.131Z,18.38
2022-08-05T03:22:57.256Z,18.31
2022-08-05T03:25:33.586Z,18.25
2022-08-05T03:28:14.081Z,18.15
2022-08-05T03:30:42.430Z,18.10
2022-08-05T03:33:09.537Z,18.04
2022-08-05T03:35:41.031Z,18.03
2022-08-05T03:38:14.338Z,18.07
2022-08-05T03:40:47.259Z,18.10
2022-08-05T03:44:09.870Z,18.17
2022-08-05T03:46:05.267Z,18.16
2022-08-05T03:48:36.735Z,18.06
2022-08-05T03:52:37.710Z,18.06
2022-08-05T03:55:06.959Z,18.08
2022-08-05T03:57:41.349Z,18.14
2022-08-05T04:00:05.715Z,18.14
2022-08-05T04:02:38.744Z,18.08
2022-08-05T04:05:09.822Z,18.06
2022-08-05T04:07:53.019Z,17.91
2022-08-05T04:10:33.270Z,17.96
2022-08-05T04:13:07.346Z,18.00
2022-08-05T04:15:36.291Z,17.91
2022-08-05T04:18:06.655Z,17.82
2022-08-05T04:20:34.604Z,17.91
2022-08-05T04:23:01.679Z,17.93
2022-08-05T04:25:58.027Z,17.93
2022-08-05T04:28:15.335Z,17.95
2022-08-05T04:30:44.169Z,17.72
2022-08-05T04:33:10.911Z,17.75
2022-08-05T04:36:11.245Z,17.73
2022-08-05T04:38:39.759Z,17.81
2022-08-05T04:41:09.463Z,17.84
2022-08-05T04:43:37.567Z,17.80
2022-08-05T04:46:07.444Z,17.66
2022-08-05T04:48:34.231Z,17.72
2022-08-05T04:51:10.968Z,17.71
2022-08-05T04:53:38.886Z,17.81
2022-08-05T04:56:34.017Z,17.87
2022-08-05T04:58:54.743Z,17.92
2022-08-05T05:02:05.471Z,17.98
2022-08-05T05:04:08.268Z,18.09
2022-08-05T05:06:44.804Z,18.10
2022-08-05T05:09:17.185Z,18.10
2022-08-05T05:11:53.156Z,18.17
2022-08-05T05:14:28.145Z,18.19
2022-08-05T05:17:01.654Z,18.16
2022-08-05T05:19:37.239Z,17.96
2022-08-05T05:22:23.869Z,18.05
2022-08-05T05:24:59.786Z,18.12
2022-08-05T05:27:44.676Z,18.23
2022-08-05T05:30:31.357Z,18.30
2022-08-05T05:33:03.803Z,18.25
2022-08-05T05:35:42.605Z,18.24
2022-08-05T05:38:13.285Z,18.30
2022-08-05T05:40:49.802Z,18.29
2022-08-05T05:43:56.488Z,18.28
2022-08-05T05:46:17.238Z,18.24
2022-08-05T05:48:45.979Z,18.31
2022-08-05T05:51:27.914Z,18.34
2022-08-05T05:53:59.577Z,18.37
2022-08-05T05:56:34.528Z,18.36
2022-08-05T05:59:07.516Z,18.34
2022-08-05T06:01:37.539Z,18.34
2022-08-05T06:04:07.631Z,18.34
2022-08-05T06:06:35.752Z,18.28
2022-08-05T06:09:04.733Z,18.12
2022-08-05T06:11:32.893Z,18.06
2022-08-05T06:14:00.821Z,17.99
2022-08-05T06:16:32.744Z,18.02
2022-08-05T06:19:01.894Z,18.02
2022-08-05T06:21:36.799Z,17.92
2022-08-05T06:24:12.036Z,17.95
2022-08-05T06:26:51.508Z,18.06
2022-08-05T06:29:23.789Z,18.13
2022-08-05T06:32:20.951Z,18.23
2022-08-05T06:34:48.411Z,18.27
2022-08-05T06:37:57.686Z,18.27
2022-08-05T06:40:07.612Z,18.34
2022-08-05T06:42:34.544Z,18.19
2022-08-05T06:45:05.569Z,18.12
2022-08-05T06:48:35.996Z,18.18
2022-08-05T06:50:22.020Z,18.11
2022-08-05T06:52:58.641Z,18.08
2022-08-05T06:55:25.868Z,17.92
2022-08-05T06:57:57.786Z,17.92
2022-08-05T07:00:38.254Z,17.99
2022-08-05T07:03:09.841Z,17.99
2022-08-05T07:05:37.741Z,18.06
2022-08-05T07:08:10.606Z,18.03
2022-08-05T07:10:38.410Z,17.98
2022-08-05T07:13:37.215Z,17.88
2022-08-05T07:17:56.846Z,17.96
2022-08-05T07:19:44.359Z,17.97
2022-08-05T07:22:07.313Z,18.04
2022-08-05T07:24:43.707Z,18.04
2022-08-05T07:27:19.137Z,18.03
2022-08-05T07:30:27.398Z,17.92
2022-08-05T07:32:36.828Z,17.87
2022-08-05T07:36:02.372Z,17.87
2022-08-05T07:38:00.147Z,17.80
2022-08-05T07:40:33.050Z,17.78
2022-08-05T07:43:04.708Z,17.67
2022-08-05T07:45:56.700Z,17.64
2022-08-05T07:49:01.772Z,17.44
2022-08-05T07:51:23.773Z,17.48
2022-08-05T07:53:58.224Z,17.67
2022-08-05T07:56:54.782Z,17.82
2022-08-05T07:59:12.963Z,17.92
2022-08-05T08:01:51.724Z,17.79
2022-08-05T08:04:37.537Z,17.86
2022-08-05T08:07:06.981Z,17.86
2022-08-05T08:09:35.346Z,17.92
2022-08-05T08:12:14.026Z,17.76
2022-08-05T08:14:46.801Z,17.77
2022-08-05T08:17:21.363Z,17.74
2022-08-05T08:20:42.879Z,17.67
2022-08-05T08:22:35.630Z,17.63
2022-08-05T08:25:03.053Z,17.58
2022-08-05T08:27:44.912Z,17.45
2022-08-05T08:30:29.635Z,17.49
2022-08-05T08:33:02.506Z,17.49
2022-08-05T08:35:35.192Z,17.56
2022-08-05T08:38:16.226Z,17.53
2022-08-05T08:40:51.417Z,17.60
2022-08-05T08:45:16.413Z,17.58
2022-08-05T08:46:09.936Z,17.59
2022-08-05T08:49:03.340Z,17.48
2022-08-05T08:52:04.150Z,17.38
2022-08-05T08:54:18.567Z,17.34
2022-08-05T08:56:47.825Z,17.33
2022-08-05T08:59:20.963Z,17.34
2022-08-05T09:01:57.575Z,17.30
2022-08-05T09:04:30.484Z,17.45
2022-08-05T09:06:57.648Z,17.42
2022-08-05T09:09:34.629Z,17.45
2022-08-05T09:12:15.304Z,17.63
2022-08-05T09:14:57.030Z,17.62
2022-08-05T09:17:41.022Z,17.66
2022-08-05T09:20:11.972Z,17.77
2022-08-05T09:23:07.751Z,17.86
2022-08-05T09:26:01.375Z,17.95
2022-08-05T09:28:32.615Z,18.06
2022-08-05T09:32:39.098Z,18.18
2022-08-05T09:34:01.538Z,17.98
2022-08-05T09:36:54.351Z,18.12
2022-08-05T09:39:39.425Z,18.12
2022-08-05T09:42:17.602Z,18.03
2022-08-05T09:44:52.434Z,18.03
2022-08-05T09:47:26.006Z,17.94
2022-08-05T09:50:02.467Z,18.02
2022-08-05T09:52:35.354Z,18.20
2022-08-05T09:55:55.330Z,18.25
2022-08-05T09:57:49.169Z,18.43
2022-08-05T10:00:26.359Z,18.59
2022-08-05T10:02:54.894Z,18.80
2022-08-05T10:05:27.864Z,18.75
2022-08-05T10:08:35.379Z,18.61
2022-08-05T10:10:50.253Z,18.56
2022-08-05T10:13:45.662Z,18.72
2022-08-05T10:16:41.622Z,18.61
2022-08-05T10:19:23.686Z,18.71
2022-08-05T10:22:09.121Z,18.86
2022-08-05T10:24:55.716Z,19.02
2022-08-05T10:27:38.720Z,19.23
2022-08-05T10:31:20.428Z,19.54
2022-08-05T10:33:02.420Z,19.87
2022-08-05T10:35:33.956Z,20.43
2022-08-05T10:38:12.267Z,21.26
2022-08-05T10:40:49.732Z,21.14
2022-08-05T10:43:17.568Z,20.73
2022-08-05T10:46:06.621Z,20.91
2022-08-05T10:48:57.105Z,21.46
2022-08-05T10:51:28.706Z,21.10
2022-08-05T10:53:56.264Z,20.97
2022-08-05T10:56:28.650Z,20.80
2022-08-05T10:58:55.840Z,20.78
2022-08-05T11:02:04.500Z,20.39
2022-08-05T11:04:26.343Z,20.53
2022-08-05T11:07:04.811Z,20.65
2022-08-05T11:09:50.533Z,20.52
2022-08-05T11:12:45.408Z,20.51
2022-08-05T11:15:59.535Z,20.46
2022-08-05T11:18:34.577Z,20.65
2022-08-05T11:21:06.372Z,20.77
2022-08-05T11:24:03.208Z,21.12
2022-08-05T11:26:32.341Z,21.53
2022-08-05T11:29:11.665Z,21.58
2022-08-05T11:31:54.051Z,21.62
2022-08-05T11:34:51.230Z,21.67
2022-08-05T11:38:28.625Z,21.59
2022-08-05T11:41:12.659Z,21.43
2022-08-05T11:44:04.646Z,21.38
2022-08-05T11:46:58.297Z,21.63
2022-08-05T11:49:24.915Z,21.67
2022-08-05T11:51:53.693Z,21.50
2022-08-05T11:54:34.607Z,21.36
2022-08-05T11:57:08.338Z,21.19
2022-08-05T11:59:51.143Z,21.37
2022-08-05T12:02:29.825Z,22.97
2022-08-05T12:04:59.880Z,24.32
2022-08-05T12:08:07.428Z,25.62
2022-08-05T12:10:24.810Z,27.01
2022-08-05T12:13:16.555Z,26.99
2022-08-05T12:15:49.854Z,25.60
2022-08-05T12:18:32.869Z,24.23
2022-08-05T12:21:18.343Z,22.95
2022-08-05T12:24:07.163Z,22.70
2022-08-05T12:26:38.797Z,22.87
2022-08-05T12:29:09.352Z,23.25
2022-08-05T12:31:46.010Z,23.48
2022-08-05T12:34:21.160Z,23.25
2022-08-05T12:36:53.401Z,23.27
2022-08-05T12:39:21.002Z,23.17
2022-08-05T12:41:48.715Z,23.71
2022-08-05T12:44:28.472Z,23.29
2022-08-05T12:47:01.674Z,23.66
2022-08-05T12:50:04.139Z,23.66
2022-08-05T12:52:32.385Z,25.35
2022-08-05T12:55:32.527Z,25.78
2022-08-05T12:58:51.272Z,26.94
2022-08-05T13:02:03.965Z,27.93
2022-08-05T13:03:41.337Z,28.51
2022-08-05T13:06:17.618Z,28.29
2022-08-05T13:08:52.283Z,28.47
2022-08-05T13:11:59.940Z,28.04
2022-08-05T13:14:36.128Z,27.24
2022-08-05T13:17:16.861Z,26.20
2022-08-05T13:19:58.996Z,25.53
2022-08-05T13:22:29.332Z,25.72
2022-08-05T13:25:05.035Z,25.04
2022-08-05T13:27:39.256Z,25.12
2022-08-05T13:30:33.896Z,25.31
2022-08-05T13:33:01.286Z,25.17
2022-08-05T13:35:42.864Z,25.16
2022-08-05T13:38:27.981Z,25.25
2022-08-05T13:40:58.987Z,25.05
2022-08-05T13:43:44.956Z,24.88
2022-08-05T13:46:14.753Z,25.58
2022-08-05T13:48:58.484Z,25.95
2022-08-05T13:51:36.639Z,26.05
2022-08-05T13:54:11.585Z,26.42
2022-08-05T13:56:50.421Z,26.91
2022-08-05T13:59:24.375Z,27.60
2022-08-05T14:01:59.542Z,28.35
2022-08-05T14:04:51.948Z,28.31
2022-08-05T14:08:00.560Z,29.25
2022-08-05T14:10:18.617Z,28.91
2022-08-05T14:12:55.344Z,28.94
2022-08-05T14:16:08.818Z,28.91
2022-08-05T14:18:14.885Z,28.67
2022-08-05T14:20:47.315Z,29.38
2022-08-05T14:23:23.990Z,29.21
2022-08-05T14:25:54.114Z,29.33
2022-08-05T14:28:27.083Z,29.30
2022-08-05T14:30:55.463Z,29.57
2022-08-05T14:33:22.639Z,29.43
2022-08-05T14:35:51.783Z,28.66
2022-08-05T14:38:32.242Z,28.33
2022-08-05T14:41:05.603Z,28.14
2022-08-05T14:44:00.309Z,28.11
2022-08-05T14:46:28.503Z,28.28
2022-08-05T14:49:06.680Z,29.02
2022-08-05T14:51:42.815Z,29.55
2022-08-05T14:54:28.638Z,29.64
2022-08-05T14:56:58.038Z,29.45
2022-08-05T14:59:25.398Z,28.69
2022-08-05T15:01:57.789Z,29.30
2022-08-05T15:04:27.291Z,29.85
2022-08-05T15:06:55.939Z,30.01
2022-08-05T15:09:51.179Z,30.38
2022-08-05T15:12:16.447Z,30.38
2022-08-05T15:14:49.994Z,28.85
2022-08-05T15:17:47.753Z,28.28
2022-08-05T15:20:06.556Z,28.90
2022-08-05T15:22:38.375Z,28.71
2022-08-05T15:25:13.733Z,28.38
2022-08-05T15:27:42.882Z,28.54
2022-08-05T15:30:19.062Z,28.53
2022-08-05T15:32:46.652Z,28.04
2022-08-05T15:35:14.917Z,27.70
2022-08-05T15:38:34.199Z,27.18
2022-08-05T15:41:00.573Z,26.43
2022-08-05T15:43:19.828Z,26.77
2022-08-05T15:45:47.993Z,27.19
2022-08-05T15:48:28.447Z,27.43
2022-08-05T15:50:55.323Z,27.95
2022-08-05T15:53:23.398Z,28.87
2022-08-05T15:56:04.252Z,29.12
2022-08-05T15:58:36.884Z,28.64
2022-08-05T16:01:16.574Z,28.10
2022-08-05T16:03:50.589Z,28.66
2022-08-05T16:06:20.336Z,28.51
2022-08-05T16:08:50.329Z,28.51
2022-08-05T16:11:18.404Z,27.47
2022-08-05T16:13:47.854Z,26.39
2022-08-05T16:16:15.575Z,25.77
2022-08-05T16:18:52.930Z,25.99
2022-08-05T16:21:20.760Z,26.20
2022-08-05T16:24:20.586Z,25.29
2022-08-05T16:26:57.708Z,25.02
2022-08-05T16:29:26.736Z,25.94
2022-08-05T16:31:56.923Z,26.08
2022-08-05T16:34:26.362Z,26.44
2022-08-05T16:36:53.928Z,26.90
2022-08-05T16:39:21.569Z,26.85
2022-08-05T16:42:13.901Z,27.49
2022-08-05T16:44:57.038Z,27.46
2022-08-05T16:47:28.550Z,27.46
2022-08-05T16:50:02.891Z,27.36
2022-08-05T16:52:33.368Z,27.71
2022-08-05T16:55:00.639Z,27.41
2022-08-05T16:57:53.334Z,26.85
2022-08-05T17:00:25.908Z,26.70
2022-08-05T17:03:15.429Z,25.94
2022-08-05T17:05:53.628Z,24.94
2022-08-05T17:08:36.251Z,24.11
2022-08-05T17:11:16.720Z,23.95
2022-08-05T17:13:45.314Z,23.49
2022-08-05T17:16:29.696Z,23.49
2022-08-05T17:18:59.275Z,23.30
2022-08-05T17:21:26.213Z,23.12
2022-08-05T17:24:14.260Z,23.25
2022-08-05T17:26:52.803Z,23.34
2022-08-05T17:29:22.485Z,23.34
2022-08-05T17:31:59.989Z,23.34
2022-08-05T17:34:29.869Z,23.57
2022-08-05T17:36:59.958Z,23.82
2022-08-05T17:39:33.233Z,24.04
2022-08-05T17:42:18.473Z,23.93
2022-08-05T17:44:50.721Z,24.35
2022-08-05T17:47:22.521Z,23.96
2022-08-05T17:50:00.157Z,24.05
2022-08-05T17:52:32.560Z,24.08
2022-08-05T17:55:00.138Z,24.00
2022-08-05T17:57:27.668Z,23.98
2022-08-05T18:00:05.015Z,23.55
2022-08-05T18:02:33.395Z,23.24
2022-08-05T18:05:06.499Z,23.52
2022-08-05T18:07:41.979Z,23.61
2022-08-05T18:10:13.984Z,23.68
2022-08-05T18:12:47.261Z,23.15
2022-08-05T18:15:14.325Z,23.39
2022-08-05T18:18:01.310Z,23.27
2022-08-05T18:20:29.602Z,23.06
2022-08-05T18:23:00.636Z,22.83
2022-08-05T18:25:39.088Z,22.98
2022-08-05T18:28:07.292Z,22.37
2022-08-05T18:30:38.916Z,22.21
2022-08-05T18:33:06.369Z,21.97
2022-08-05T18:36:01.422Z,21.44
2022-08-05T18:38:25.766Z,21.18
2022-08-05T18:41:55.808Z,21.14
2022-08-05T18:43:43.111Z,21.04
2022-08-05T18:46:19.889Z,20.74
2022-08-05T18:48:48.391Z,20.35
2022-08-05T18:52:05.065Z,20.18
2022-08-05T18:54:31.333Z,20.05
2022-08-05T18:57:01.706Z,19.88
2022-08-05T18:59:42.752Z,19.79
2022-08-05T19:02:26.810Z,19.68
2022-08-05T19:05:01.133Z,19.71
2022-08-05T19:07:46.438Z,19.45
2022-08-05T19:10:18.906Z,19.40
2022-08-05T19:12:53.533Z,19.39
2022-08-05T19:15:59.713Z,19.45
2022-08-05T19:18:10.178Z,19.37
2022-08-05T19:20:41.819Z,19.17
2022-08-05T19:24:04.481Z,19.01
2022-08-05T19:26:02.592Z,18.91
2022-08-05T19:28:31.004Z,18.89
2022-08-05T19:31:01.131Z,18.73
2022-08-05T19:33:35.283Z,18.79
2022-08-05T19:36:06.390Z,18.63
2022-08-05T19:38:35.613Z,18.53
2022-08-05T19:41:07.199Z,18.54
2022-08-05T19:44:05.296Z,18.53
2022-08-05T19:46:29.606Z,18.44
2022-08-05T19:49:03.368Z,18.37
2022-08-05T19:52:08.809Z,18.29
2022-08-05T19:54:31.285Z,18.28
2022-08-05T19:56:59.930Z,18.21
2022-08-05T19:59:59.609Z,18.19
2022-08-05T20:02:17.409Z,18.12
2022-08-05T20:04:46.096Z,18.08
2022-08-05T20:07:14.034Z,18.01
2022-08-05T20:09:53.695Z,17.87
2022-08-05T20:12:23.728Z,17.81
2022-08-05T20:14:52.335Z,17.73
2022-08-05T20:17:23.465Z,17.66
2022-08-05T20:19:56.747Z,17.56
2022-08-05T20:22:26.716Z,17.48
2022-08-05T20:24:55.596Z,17.50
2022-08-05T20:27:27.403Z,17.34
2022-08-05T20:30:10.357Z,17.34
2022-08-05T20:32:37.623Z,17.34
2022-08-05T20:35:11.990Z,17.25
2022-08-05T20:38:08.141Z,17.22
2022-08-05T20:40:27.250Z,17.14
2022-08-05T20:43:00.138Z,17.13
2022-08-05T20:45:56.232Z,17.06
2022-08-05T20:48:16.400Z,17.01
2022-08-05T20:50:46.784Z,17.00
2022-08-05T20:53:16.196Z,17.03
2022-08-05T20:56:09.007Z,16.96
2022-08-05T20:58:36.302Z,16.95
2022-08-05T21:01:04.561Z,16.97
2022-08-05T21:03:34.406Z,16.82
2022-08-05T21:06:02.016Z,16.88
2022-08-05T21:08:42.312Z,16.88
2022-08-05T21:11:12.711Z,16.93
2022-08-05T21:13:55.852Z,16.90
2022-08-05T21:16:29.476Z,16.84
2022-08-05T21:19:00.102Z,16.84
2022-08-05T21:21:39.414Z,16.77
2022-08-05T21:24:13.366Z,16.71
2022-08-05T21:26:45.959Z,16.66
2022-08-05T21:29:17.300Z,16.69
2022-08-05T21:31:44.015Z,16.58
2022-08-05T21:34:11.139Z,16.50
2022-08-05T21:36:38.799Z,16.46
2022-08-05T21:39:09.748Z,16.42
2022-08-05T21:41:41.617Z,16.23
2022-08-05T21:44:19.327Z,16.23
2022-08-05T21:46:53.863Z,16.19
2022-08-05T21:49:48.342Z,16.08
2022-08-05T21:52:21.709Z,16.08
2022-08-05T21:54:54.893Z,16.04
2022-08-05T21:57:37.661Z,16.03
2022-08-05T22:00:11.635Z,16.02
2022-08-05T22:02:38.651Z,15.96
2022-08-05T22:05:06.235Z,15.88
2022-08-05T22:07:39.818Z,15.83
2022-08-05T22:10:26.833Z,15.69
2022-08-05T22:12:57.290Z,15.71
2022-08-05T22:16:04.631Z,15.66
2022-08-05T22:18:11.676Z,15.64
2022-08-05T22:20:39.825Z,15.67
2022-08-05T22:24:03.117Z,15.67
2022-08-05T22:26:31.066Z,15.65
2022-08-05T22:28:58.177Z,15.63
2022-08-05T22:31:24.912Z,15.54
2022-08-05T22:34:01.084Z,15.44
2022-08-05T22:36:29.066Z,15.34
2022-08-05T22:38:56.796Z,15.27
2022-08-05T22:42:05.711Z,15.26
2022-08-05T22:44:12.088Z,15.25
2022-08-05T22:46:40.744Z,15.23
2022-08-05T22:49:23.452Z,15.25
2022-08-05T22:52:06.360Z,15.23
2022-08-05T22:54:36.308Z,15.14
2022-08-05T22:57:07.117Z,15.04
2022-08-05T22:59:48.287Z,14.92
2022-08-05T23:02:18.763Z,14.81
2022-08-05T23:04:57.048Z,14.75
2022-08-05T23:07:23.774Z,14.70
2022-08-05T23:10:01.388Z,14.70
2022-08-05T23:12:32.951Z,14.59
2022-08-05T23:15:09.143Z,14.53
2022-08-05T23:17:59.605Z,14.56
2022-08-05T23:20:24.372Z,14.58
2022-08-05T23:22:56.062Z,14.58
2022-08-05T23:25:52.145Z,14.58
2022-08-05T23:28:11.325Z,14.54
2022-08-05T23:30:43.481Z,14.51
2022-08-05T23:33:16.127Z,14.51
2022-08-05T23:35:50.449Z,14.40
2022-08-05T23:38:18.138Z,14.34
2022-08-05T23:40:49.870Z,14.39
2022-08-05T23:43:25.800Z,14.34
2022-08-05T23:46:21.239Z,14.27
2022-08-05T23:49:00.412Z,14.26
2022-08-05T23:51:54.871Z,14.24
2022-08-05T23:54:30.310Z,14.23
2022-08-05T23:57:04.698Z,14.16
2022-08-05T23:59:37.715Z,14.16
